Time;durP1;ratioP1;P1;durP2;ratioP2;P2;SDS_P1;SDS_P2;PMS_P1;PMS_P2;Temp;Humidity;BMP_temperature;BMP_pressure;BME280_temperature;BME280_humidity;BME280_pressure;Samples;Min_cycle;Max_cycle;Signal;HPM_P1;HPM_P2
2024/01/11 00:02:04;;;;;;;29.13;11.52;;;;;;;-4.96;83.76;103148.16;5090548;27;20026;-85
2024/01/11 00:04:30;;;;;;;25.08;10.13;;;;;;;-4.97;83.37;103151.56;5125135;27;20429;-85
2024/01/11 00:06:55;;;;;;;23.77;10.15;;;;;;;-4.98;83.72;103145.56;5106696;27;20076;-85
2024/01/11 00:09:20;;;;;;;23.95;9.55;;;;;;;-4.99;83.76;103142.94;5119704;27;20426;-85
2024/01/11 00:11:46;;;;;;;28.50;11.52;;;;;;;-5.00;83.48;103143.78;5125644;27;20047;-86
2024/01/11 00:14:11;;;;;;;23.33;10.30;;;;;;;-5.00;83.36;103141.22;5111819;27;20031;-84
2024/01/11 00:16:36;;;;;;;30.23;11.60;;;;;;;-5.00;83.84;103138.66;5113989;27;20699;-85
2024/01/11 00:19:02;;;;;;;23.90;10.25;;;;;;;-5.03;83.59;103136.00;5120081;27;20532;-85
2024/01/11 00:21:27;;;;;;;39.25;27.55;;;;;;;-5.11;85.45;103144.38;5104974;27;20118;-85
2024/01/11 00:23:53;;;;;;;38.95;27.92;;;;;;;-5.19;86.18;103145.84;5105691;28;20028;-86
2024/01/11 00:26:18;;;;;;;26.75;11.10;;;;;;;-5.08;85.40;103152.16;5114801;27;20034;-85
2024/01/11 00:28:44;;;;;;;39.03;27.90;;;;;;;-5.21;86.17;103141.47;5113933;27;20023;-85
2024/01/11 00:31:10;;;;;;;26.27;12.15;;;;;;;-5.12;85.56;103149.47;5106737;28;20677;-85
2024/01/11 00:33:35;;;;;;;36.85;27.50;;;;;;;-5.24;86.17;103144.81;5118318;27;20038;-85
2024/01/11 00:36:01;;;;;;;27.52;11.75;;;;;;;-5.14;85.73;103149.41;5123786;27;21761;-85
2024/01/11 00:38:26;;;;;;;28.63;10.98;;;;;;;-5.13;86.00;103135.75;5110337;27;20386;-85
2024/01/11 00:40:52;;;;;;;31.33;10.93;;;;;;;-5.12;85.36;103147.75;5124127;27;20069;-85
2024/01/11 00:43:17;;;;;;;27.48;11.02;;;;;;;-5.14;85.93;103154.53;5124614;28;20022;-85
2024/01/11 00:45:45;;;;;;;22.30;9.35;;;;;;;-5.14;85.56;103139.16;5115566;27;20046;-86
2024/01/11 00:48:12;;;;;;;28.48;11.38;;;;;;;-5.14;85.35;103149.41;5095855;28;20267;-84
2024/01/11 00:50:37;;;;;;;38.70;28.75;;;;;;;-5.26;86.36;103137.91;5125950;28;20031;-85
2024/01/11 00:53:03;;;;;;;26.45;11.82;;;;;;;-5.16;86.39;103150.19;5113801;28;20091;-85
2024/01/11 00:55:29;;;;;;;29.65;10.93;;;;;;;-5.17;85.76;103151.91;5105019;28;20385;-85
2024/01/11 00:57:54;;;;;;;41.08;29.70;;;;;;;-5.31;87.19;103145.50;5117304;28;20019;-85
2024/01/11 01:00:19;;;;;;;37.90;28.25;;;;;;;-5.31;87.50;103150.63;5122242;28;20760;-85
2024/01/11 01:02:45;;;;;;;26.63;11.50;;;;;;;-5.23;86.87;103148.25;5124406;27;20027;-85
2024/01/11 01:05:10;;;;;;;24.60;9.48;;;;;;;-5.24;86.58;103149.97;5127512;27;20528;-84
2024/01/11 01:07:36;;;;;;;37.70;10.98;;;;;;;-5.24;86.57;103149.97;5119281;27;20102;-85
2024/01/11 01:10:01;;;;;;;26.10;9.75;;;;;;;-5.24;85.82;103151.66;5109603;27;20672;-85
2024/01/11 01:12:28;;;;;;;22.92;9.20;;;;;;;-5.25;86.58;103153.34;5125323;27;20024;-85
2024/01/11 01:14:54;;;;;;;27.55;10.95;;;;;;;-5.25;86.74;103152.47;5115092;27;20023;-84
2024/01/11 01:17:19;;;;;;;25.42;10.10;;;;;;;-5.27;86.25;103156.69;5117930;27;20379;-84
2024/01/11 01:19:44;;;;;;;29.77;9.85;;;;;;;-5.28;86.25;103160.09;5109571;28;20463;-85
2024/01/11 01:22:10;;;;;;;29.85;11.63;;;;;;;-5.30;86.36;103157.50;5117987;27;20065;-85
2024/01/11 01:24:35;;;;;;;24.80;10.05;;;;;;;-5.29;86.87;103164.34;5110097;28;20111;-84
2024/01/11 01:27:00;;;;;;;41.08;28.95;;;;;;;-5.46;87.60;103165.56;5108852;28;20115;-85
2024/01/11 01:29:26;;;;;;;29.60;11.88;;;;;;;-5.35;87.23;103169.31;5105457;27;20471;-85
2024/01/11 01:31:55;;;;;;;24.70;11.25;;;;;;;-5.35;87.40;103169.31;5129995;27;20030;-86
2024/01/11 01:34:21;;;;;;;27.98;10.38;;;;;;;-5.36;87.00;103172.72;5129879;27;20486;-84
2024/01/11 01:36:46;;;;;;;37.67;28.17;;;;;;;-5.55;88.29;103166.19;5129997;27;20031;-84
2024/01/11 01:39:11;;;;;;;31.08;11.10;;;;;;;-5.43;87.79;103171.66;5115159;27;20399;-84
2024/01/11 01:41:37;;;;;;;20.40;9.85;;;;;;;-5.44;87.60;103174.19;5129707;27;20114;-85
2024/01/11 01:44:02;;;;;;;27.17;11.43;;;;;;;-5.47;87.75;103179.22;5130204;27;20106;-85
2024/01/11 01:46:28;;;;;;;31.55;12.30;;;;;;;-5.49;87.83;103192.00;5131465;27;20419;-85
2024/01/11 01:48:55;;;;;;;29.70;11.45;;;;;;;-5.51;87.90;103191.09;5129894;27;20039;-85
2024/01/11 01:51:22;;;;;;;25.63;11.10;;;;;;;-5.49;88.52;103197.13;5127445;27;20019;-85
2024/01/11 01:53:52;;;;;;;32.70;11.20;;;;;;;-5.49;88.46;103191.13;5124094;27;20487;-84
2024/01/11 01:56:19;;;;;;;24.05;10.25;;;;;;;-5.51;88.31;103193.66;5118113;27;20520;-85
2024/01/11 01:58:45;;;;;;;38.17;28.48;;;;;;;-5.65;90.33;103201.75;5120911;27;20030;-85
2024/01/11 02:01:12;;;;;;;27.38;10.48;;;;;;;-5.56;89.75;103205.47;5127886;27;20032;-85
2024/01/11 02:03:37;;;;;;;40.63;29.60;;;;;;;-5.68;91.15;103205.94;5118260;27;20110;-85
2024/01/11 02:06:05;;;;;;;28.33;11.38;;;;;;;-5.58;90.54;103204.56;5121580;27;20122;-85
2024/01/11 02:08:31;;;;;;;23.10;9.68;;;;;;;-5.57;89.88;103208.00;5128246;27;20019;-85
2024/01/11 02:10:59;;;;;;;25.08;10.82;;;;;;;-5.58;89.75;103193.44;5119587;27;20411;-84
2024/01/11 02:13:25;;;;;;;32.50;10.82;;;;;;;-5.60;89.33;103198.50;5129744;27;20031;-85
2024/01/11 02:15:50;;;;;;;33.75;11.73;;;;;;;-5.63;89.78;103193.25;5115075;27;20085;-84
2024/01/11 02:18:15;;;;;;;23.90;9.85;;;;;;;-5.64;89.56;103182.97;5127027;27;20060;-83
2024/01/11 02:20:41;;;;;;;30.15;10.77;;;;;;;-5.65;89.51;103183.78;5110583;27;20420;-84
2024/01/11 02:23:14;;;;;;;24.02;10.55;;;;;;;-5.68;89.81;103184.56;5121491;27;20066;-84
2024/01/11 02:25:39;;;;;;;28.83;12.02;;;;;;;-5.72;89.83;103177.59;5111504;27;20475;-84
2024/01/11 02:28:05;;;;;;;29.13;10.85;;;;;;;-5.75;89.73;103180.09;5118732;27;20077;-85
2024/01/11 02:30:30;;;;;;;27.98;11.10;;;;;;;-5.78;89.78;103180.00;5108252;27;20084;-85
2024/01/11 02:32:57;;;;;;;39.58;29.50;;;;;;;-6.03;90.56;103179.25;5116012;27;20387;-85
2024/01/11 02:35:24;;;;;;;33.10;13.20;;;;;;;-5.88;90.49;103183.97;5110265;27;20027;-84
2024/01/11 02:37:50;;;;;;;39.25;28.92;;;;;;;-6.09;91.77;103185.88;5126792;27;20026;-85
2024/01/11 02:40:15;;;;;;;42.03;30.38;;;;;;;-6.08;93.28;103187.63;5127916;27;20023;-84
2024/01/11 02:42:41;;;;;;;42.28;30.63;;;;;;;-6.12;93.71;103196.88;5120911;27;20039;-84
2024/01/11 02:45:07;;;;;;;24.50;10.63;;;;;;;-5.98;93.33;103189.66;5112075;27;20031;-84
2024/01/11 02:47:32;;;;;;;28.05;12.32;;;;;;;-5.99;92.16;103184.50;5112568;27;20015;-85
2024/01/11 02:49:57;;;;;;;40.15;29.02;;;;;;;-6.19;92.70;103181.28;5118751;27;20012;-85
2024/01/11 02:52:23;;;;;;;27.35;10.73;;;;;;;-6.06;92.77;103188.53;5109384;27;20023;-86
2024/01/11 02:54:48;;;;;;;28.50;10.85;;;;;;;-6.06;92.15;103188.53;5108015;27;20032;-86
2024/01/11 02:57:14;;;;;;;38.65;28.80;;;;;;;-6.22;92.60;103194.00;5113513;27;20430;-85
2024/01/11 02:59:40;;;;;;;22.10;9.43;;;;;;;-6.12;93.09;103196.03;5108242;28;20027;-84
2024/01/11 03:02:05;;;;;;;22.15;10.55;;;;;;;-6.13;92.13;103196.84;5117462;27;20133;-84
2024/01/11 03:04:30;;;;;;;20.85;9.70;;;;;;;-6.15;92.52;103195.94;5126721;27;20031;-85
2024/01/11 03:06:56;;;;;;;25.10;11.43;;;;;;;-6.17;91.99;103189.88;5120707;27;20050;-85
2024/01/11 03:09:21;;;;;;;23.92;10.13;;;;;;;-6.18;91.59;103188.16;5121179;27;20137;-84
2024/01/11 03:11:50;;;;;;;29.73;11.10;;;;;;;-6.20;91.70;103187.22;5098509;27;20153;-85
2024/01/11 03:14:15;;;;;;;41.65;29.15;;;;;;;-6.44;93.30;103188.13;5114813;27;20052;-85
2024/01/11 03:16:41;;;;;;;30.90;11.57;;;;;;;-6.28;93.18;103193.78;5121062;27;20023;-85
2024/01/11 03:19:07;;;;;;;38.72;29.55;;;;;;;-6.39;93.84;103201.13;5096685;28;20085;-85
2024/01/11 03:21:32;;;;;;;29.35;11.43;;;;;;;-6.32;93.48;103193.69;5109173;27;20090;-84
2024/01/11 03:23:59;;;;;;;26.63;11.55;;;;;;;-6.32;93.30;103193.69;5118499;27;20027;-84
2024/01/11 03:26:25;;;;;;;30.60;12.10;;;;;;;-6.34;93.07;103210.69;5128085;27;21114;-84
2024/01/11 03:28:50;;;;;;;33.08;11.27;;;;;;;-6.34;93.10;103192.78;5125594;27;20027;-85
2024/01/11 03:31:15;;;;;;;28.80;10.85;;;;;;;-6.32;92.99;103188.56;5129085;27;20027;-85
2024/01/11 03:33:41;;;;;;;44.75;31.38;;;;;;;-6.47;93.86;103192.28;5115178;27;20031;-85
2024/01/11 03:36:10;;;;;;;27.08;10.98;;;;;;;-6.36;94.04;103191.84;5114279;27;20784;-85
2024/01/11 03:38:36;;;;;;;28.50;10.73;;;;;;;-6.38;93.75;103185.81;5105680;27;20110;-85
2024/01/11 03:41:02;;;;;;;34.78;10.73;;;;;;;-6.39;93.01;103201.13;5117644;27;20144;-85
2024/01/11 03:43:30;;;;;;;30.77;11.75;;;;;;;-6.40;93.09;103194.25;5119170;27;20106;-84
2024/01/11 03:45:55;;;;;;;43.88;31.65;;;;;;;-6.58;94.43;103184.25;5107008;28;20490;-84
2024/01/11 03:48:20;;;;;;;27.52;11.20;;;;;;;-6.46;94.44;103189.78;5111932;27;20044;-85
2024/01/11 03:50:46;;;;;;;26.35;11.02;;;;;;;-6.47;93.48;103185.47;5121387;27;20026;-85
2024/01/11 03:53:11;;;;;;;26.85;10.90;;;;;;;-6.48;93.26;103180.31;5119427;27;20038;-85
2024/01/11 03:55:36;;;;;;;29.88;11.75;;;;;;;-6.50;93.10;103187.06;5111946;27;20177;-85
2024/01/11 03:58:02;;;;;;;43.38;31.63;;;;;;;-6.72;94.29;103185.47;5114820;27;20031;-84
2024/01/11 04:00:27;;;;;;;29.95;12.60;;;;;;;-6.61;94.92;103189.28;5115720;27;20656;-85
2024/01/11 04:02:53;;;;;;;28.63;11.07;;;;;;;-6.63;94.12;103203.72;5125213;27;20141;-85
2024/01/11 04:05:18;;;;;;;26.45;12.15;;;;;;;-6.64;94.30;103201.97;5125704;27;20071;-85
2024/01/11 04:07:43;;;;;;;25.42;11.13;;;;;;;-6.65;93.43;103195.97;5119211;27;21157;-85
2024/01/11 04:10:09;;;;;;;26.92;10.38;;;;;;;-6.64;93.60;103199.41;5116537;27;20069;-85
2024/01/11 04:12:36;;;;;;;24.70;10.38;;;;;;;-6.66;93.74;103191.69;5122137;27;20034;-86
2024/01/11 04:15:01;;;;;;;28.58;10.38;;;;;;;-6.66;93.93;103186.56;5113525;27;20023;-85
2024/01/11 04:17:30;;;;;;;23.77;10.07;;;;;;;-6.68;93.90;103198.44;5120187;27;20034;-86
2024/01/11 04:19:55;;;;;;;28.40;11.38;;;;;;;-6.69;94.00;103211.19;5113994;27;20015;-85
2024/01/11 04:22:20;;;;;;;30.40;11.23;;;;;;;-6.69;94.12;103221.41;5118096;27;20034;-84
2024/01/11 04:24:46;;;;;;;27.75;10.43;;;;;;;-6.68;94.24;103239.38;5120718;27;20023;-85
2024/01/11 04:27:11;;;;;;;30.10;12.23;;;;;;;-6.66;95.12;103242.88;5124879;27;20028;-85
2024/01/11 04:29:37;;;;;;;34.40;11.90;;;;;;;-6.65;94.74;103238.63;5120800;27;20023;-85
2024/01/11 04:32:02;;;;;;;29.50;11.48;;;;;;;-6.64;94.54;103235.25;5115295;27;20023;-85
2024/01/11 04:34:28;;;;;;;40.30;30.25;;;;;;;-6.77;95.84;103240.75;5108268;27;20035;-85
2024/01/11 04:36:53;;;;;;;28.48;11.05;;;;;;;-6.67;95.86;103236.00;5115375;27;20068;-86
2024/01/11 04:39:18;;;;;;;31.10;11.65;;;;;;;-6.67;94.71;103245.38;5123319;27;20019;-86
2024/01/11 04:41:45;;;;;;;32.42;11.13;;;;;;;-6.68;94.71;103248.75;5122325;27;20419;-85
2024/01/11 04:44:10;;;;;;;31.42;11.45;;;;;;;-6.68;94.77;103248.75;5099424;28;20019;-86
2024/01/11 04:46:35;;;;;;;29.77;12.60;;;;;;;-6.68;95.04;103251.31;5119374;28;20019;-85
2024/01/11 04:49:01;;;;;;;28.85;11.35;;;;;;;-6.67;94.45;103253.06;5126002;27;20058;-85
2024/01/11 04:51:26;;;;;;;31.88;10.85;;;;;;;-6.66;94.72;103253.09;5125655;28;20110;-85
2024/01/11 04:53:52;;;;;;;28.85;10.65;;;;;;;-6.66;95.08;103247.13;5113735;28;20110;-85
2024/01/11 04:56:17;;;;;;;30.38;11.95;;;;;;;-6.67;94.53;103235.13;5110267;27;20049;-86
2024/01/11 04:58:44;;;;;;;33.33;12.55;;;;;;;-6.67;94.85;103240.25;5111337;28;20031;-85
2024/01/11 05:01:16;;;;;;;30.67;12.02;;;;;;;-6.70;94.75;103235.03;5107060;28;20113;-85
2024/01/11 05:03:45;;;;;;;;;;;;;;;-6.68;94.25;103243.63;5126695;27;20038;-86
2024/01/11 05:06:18;;;;;;;32.85;12.30;;;;;;;-6.70;93.97;103247.84;5125359;27;19919;-86
2024/01/11 05:08:47;;;;;;;29.23;10.40;;;;;;;-6.71;94.39;103243.53;5124576;28;20026;-85
2024/01/11 05:11:20;;;;;;;29.63;11.73;;;;;;;-6.73;94.56;103250.28;5100945;28;20054;-85
2024/01/11 05:13:47;;;;;;;28.52;10.25;;;;;;;-6.77;94.59;103243.31;5114233;28;20077;-85
2024/01/11 05:16:22;;;;;;;39.92;30.20;;;;;;;-6.97;96.31;103246.00;5099655;28;20126;-84
2024/01/11 05:18:51;;;;;;;28.58;11.80;;;;;;;-6.86;95.85;103258.31;5121690;28;20525;-83
2024/01/11 05:21:17;;;;;;;23.35;11.20;;;;;;;-6.86;95.36;103253.19;5091902;28;20035;-85
2024/01/11 05:23:43;;;;;;;26.70;11.45;;;;;;;-6.86;95.27;103255.75;5106822;28;20154;-85
2024/01/11 05:26:09;;;;;;;26.70;11.38;;;;;;;-6.85;95.47;103260.06;5119861;27;20026;-84
2024/01/11 05:28:34;;;;;;;29.92;10.63;;;;;;;-6.87;95.19;103261.69;5106726;28;20031;-85
2024/01/11 05:31:00;;;;;;;24.08;10.55;;;;;;;-6.88;95.75;103257.38;5113441;28;20037;-85
2024/01/11 05:33:25;;;;;;;24.17;11.27;;;;;;;-6.89;95.25;103269.31;5121141;27;20107;-85
2024/01/11 05:35:53;;;;;;;28.75;11.98;;;;;;;-6.89;95.36;103276.13;5120553;28;20035;-84
2024/01/11 05:38:21;;;;;;;22.15;8.85;;;;;;;-6.89;95.14;103271.00;5107648;28;20028;-84
2024/01/11 05:40:47;;;;;;;23.73;10.70;;;;;;;-6.91;95.67;103282.88;5127132;28;20135;-85
2024/01/11 05:43:12;;;;;;;24.48;10.75;;;;;;;-6.92;95.16;103283.69;5108541;28;20058;-85
2024/01/11 05:45:37;;;;;;;29.75;10.50;;;;;;;-6.93;95.51;103294.72;5127243;27;20027;-86
2024/01/11 05:48:05;;;;;;;26.83;10.57;;;;;;;-6.93;95.37;103310.09;5108952;27;20038;-84
2024/01/11 05:50:30;;;;;;;35.13;10.93;;;;;;;-6.96;95.67;103304.03;5131251;27;20034;-85
2024/01/11 05:52:56;;;;;;;26.85;10.45;;;;;;;-6.97;96.09;103298.88;5130245;27;20023;-85
2024/01/11 05:55:22;;;;;;;24.33;10.40;;;;;;;-6.98;96.13;103285.19;5110079;27;20603;-85
2024/01/11 05:57:48;;;;;;;43.45;29.52;;;;;;;-7.10;97.36;103283.88;5109122;27;20032;-85
2024/01/11 06:00:14;;;;;;;21.77;10.52;;;;;;;-7.00;97.19;103271.47;5127549;27;20487;-84
2024/01/11 06:02:40;;;;;;;24.00;11.27;;;;;;;-7.00;97.23;103276.59;5128694;27;20083;-84
2024/01/11 06:05:08;;;;;;;33.45;12.18;;;;;;;-7.03;96.74;103279.03;5125517;27;20048;-84
2024/01/11 06:07:33;;;;;;;31.95;11.55;;;;;;;-7.05;96.72;103283.25;5102072;27;20027;-85
2024/01/11 06:09:58;;;;;;;43.88;31.52;;;;;;;-7.22;98.21;103288.50;5124059;27;20062;-84
2024/01/11 06:12:24;;;;;;;41.17;30.88;;;;;;;-7.24;98.59;103285.91;5113881;27;20102;-85
2024/01/11 06:14:49;;;;;;;44.85;32.08;;;;;;;-7.34;99.53;103300.00;5116656;27;20034;-84
2024/01/11 06:17:14;;;;;;;29.77;12.48;;;;;;;-7.20;98.85;103303.13;5115093;27;20084;-84
2024/01/11 06:19:39;;;;;;;45.55;32.53;;;;;;;-7.32;99.56;103313.72;5115680;27;20138;-84
2024/01/11 06:22:05;;;;;;;25.98;11.73;;;;;;;-7.22;99.29;103320.06;5109877;27;20015;-84
2024/01/11 06:24:31;;;;;;;22.05;10.40;;;;;;;-7.22;98.85;103317.50;5112937;27;20035;-84
2024/01/11 06:26:56;;;;;;;31.45;12.07;;;;;;;-7.23;98.87;103308.09;5113412;27;20038;-85
2024/01/11 06:29:22;;;;;;;32.70;12.25;;;;;;;-7.23;98.55;103302.09;5121869;27;20080;-84
2024/01/11 06:31:50;;;;;;;30.35;11.90;;;;;;;-7.24;98.03;103301.25;5124526;27;20437;-84
2024/01/11 06:34:15;;;;;;;45.63;31.92;;;;;;;-7.42;99.03;103303.09;5124334;27;20106;-84
2024/01/11 06:36:40;;;;;;;24.77;9.63;;;;;;;-7.31;99.03;103312.03;5108618;27;20083;-84
2024/01/11 06:39:06;;;;;;;28.17;10.95;;;;;;;-7.31;99.08;103309.50;5120878;27;20032;-85
2024/01/11 06:41:31;;;;;;;40.25;31.17;;;;;;;-7.48;100.00;103305.41;5121960;27;20066;-84
2024/01/11 06:43:56;;;;;;;25.30;12.18;;;;;;;-7.36;99.62;103298.22;5120279;27;20570;-84
2024/01/11 06:46:23;;;;;;;30.20;11.48;;;;;;;-7.37;99.41;103294.78;5123149;27;20023;-83
2024/01/11 06:48:49;;;;;;;26.13;10.70;;;;;;;-7.38;98.67;103293.03;5108874;28;20068;-84
2024/01/11 06:51:15;;;;;;;26.65;10.50;;;;;;;-7.38;98.71;103310.94;5122473;27;20076;-85
2024/01/11 06:53:42;;;;;;;31.25;11.15;;;;;;;-7.39;98.71;103310.88;5111351;27;20030;-83
2024/01/11 06:56:17;;;;;;;25.67;10.02;;;;;;;-7.39;98.65;103316.00;5099755;27;20308;-84
2024/01/11 06:58:44;;;;;;;37.50;29.08;;;;;;;-7.54;100.00;103317.94;5124499;27;20057;-84
2024/01/11 07:01:09;;;;;;;24.50;10.95;;;;;;;-7.45;99.59;103321.75;5115570;27;20144;-84
2024/01/11 07:03:34;;;;;;;30.65;11.63;;;;;;;-7.45;99.29;103329.41;5109295;28;20023;-84
2024/01/11 07:06:00;;;;;;;25.25;10.88;;;;;;;-7.46;99.21;103330.22;5121982;27;20050;-85
2024/01/11 07:08:25;;;;;;;36.30;12.18;;;;;;;-7.46;98.96;103329.34;5128435;27;20026;-86
2024/01/11 07:10:50;;;;;;;23.30;9.95;;;;;;;-7.46;99.30;103325.09;5127786;27;20055;-85
2024/01/11 07:13:16;;;;;;;29.65;11.15;;;;;;;-7.47;98.92;103322.50;5121137;27;20027;-85
2024/01/11 07:15:45;;;;;;;26.35;11.13;;;;;;;-7.50;98.95;103337.72;5127217;27;20110;-85
2024/01/11 07:18:10;;;;;;;23.63;10.60;;;;;;;-7.50;99.11;103340.25;5117640;27;20114;-85
2024/01/11 07:20:36;;;;;;;26.40;10.35;;;;;;;-7.50;98.45;103351.38;5128826;27;20113;-85
2024/01/11 07:23:02;;;;;;;27.65;10.15;;;;;;;-7.50;98.74;103345.38;5126727;27;20378;-84
2024/01/11 07:25:27;;;;;;;28.75;12.25;;;;;;;-7.50;98.68;103353.03;5116014;27;20019;-85
2024/01/11 07:27:53;;;;;;;43.67;30.80;;;;;;;-7.66;100.00;103346.41;5108259;28;20020;-84
2024/01/11 07:30:18;;;;;;;28.90;11.48;;;;;;;-7.54;100.00;103343.50;5117082;27;20098;-84
2024/01/11 07:32:44;;;;;;;28.88;9.93;;;;;;;-7.54;100.00;103346.94;5128174;27;20049;-84
2024/01/11 07:35:10;;;;;;;25.85;11.07;;;;;;;-7.55;99.47;103344.31;5121123;27;20436;-85
2024/01/11 07:37:36;;;;;;;33.88;11.23;;;;;;;-7.55;99.64;103355.41;5109816;27;20461;-85
2024/01/11 07:40:02;;;;;;;25.58;11.30;;;;;;;-7.55;99.95;103350.31;5127074;27;20034;-85
2024/01/11 07:42:27;;;;;;;25.33;11.38;;;;;;;-7.54;99.70;103358.84;5128615;27;20092;-84
2024/01/11 07:44:53;;;;;;;25.33;10.57;;;;;;;-7.55;99.51;103350.31;5127871;27;20091;-85
2024/01/11 07:47:18;;;;;;;32.53;10.38;;;;;;;-7.54;99.64;103351.19;5126771;27;20106;-85
2024/01/11 07:49:44;;;;;;;25.55;10.23;;;;;;;-7.55;99.45;103344.31;5120065;27;20091;-85
2024/01/11 07:52:09;;;;;;;26.85;10.07;;;;;;;-7.57;99.50;103335.72;5113578;27;20032;-85
2024/01/11 07:54:35;;;;;;;27.38;10.32;;;;;;;-7.55;99.67;103344.31;5114317;27;20023;-85
2024/01/11 07:57:02;;;;;;;31.83;11.45;;;;;;;-7.56;99.78;103352.81;5107136;27;20111;-84
2024/01/11 07:59:32;;;;;;;27.58;11.32;;;;;;;-7.56;99.77;103358.78;5127294;27;20027;-84
2024/01/11 08:02:00;;;;;;;25.48;11.35;;;;;;;-7.54;99.39;103353.75;5113686;27;20023;-85
2024/01/11 08:04:25;;;;;;;30.40;12.77;;;;;;;-7.52;99.81;103364.91;5101424;28;20111;-84
2024/01/11 08:06:52;;;;;;;27.77;12.43;;;;;;;-7.52;100.00;103363.22;5122035;27;20101;-83
2024/01/11 08:09:18;;;;;;;31.27;12.65;;;;;;;-7.48;99.87;103357.41;5122355;27;20117;-83
2024/01/11 08:11:43;;;;;;;26.73;11.75;;;;;;;-7.46;100.00;103347.25;5127730;27;20122;-84
2024/01/11 08:14:08;;;;;;;41.35;29.98;;;;;;;-7.56;100.00;103343.44;5112839;27;20027;-83
2024/01/11 08:16:34;;;;;;;26.65;11.00;;;;;;;-7.44;100.00;103345.63;5110477;27;21139;-84
2024/01/11 08:19:00;;;;;;;40.45;29.80;;;;;;;-7.48;100.00;103336.09;5119034;27;20067;-83
2024/01/11 08:21:26;;;;;;;30.50;11.07;;;;;;;-7.41;100.00;103338.94;5126507;27;20021;-83
2024/01/11 08:23:52;;;;;;;24.13;10.65;;;;;;;-7.36;100.00;103328.91;5125735;27;20023;-83
2024/01/11 08:26:21;;;;;;;32.17;10.15;;;;;;;-7.32;100.00;103323.09;5106668;27;20034;-83
2024/01/11 08:28:46;;;;;;;25.05;9.90;;;;;;;-7.28;100.00;103323.25;5125923;27;20019;-84
2024/01/11 08:31:12;;;;;;;27.05;10.35;;;;;;;-7.21;100.00;103323.50;5115626;27;20452;-83
2024/01/11 08:33:37;;;;;;;29.33;9.70;;;;;;;-7.16;100.00;103327.13;5112430;27;20391;-84
2024/01/11 08:36:04;;;;;;;40.78;29.25;;;;;;;-7.16;100.00;103328.00;5113577;27;20415;-84
2024/01/11 08:38:30;;;;;;;41.05;28.77;;;;;;;-7.15;100.00;103326.31;5126235;27;20530;-84
2024/01/11 08:40:55;;;;;;;32.72;11.10;;;;;;;-7.03;100.00;103330.22;5121421;27;20031;-83
2024/01/11 08:43:21;;;;;;;29.08;11.90;;;;;;;-6.95;100.00;103344.16;5106634;27;20079;-84
2024/01/11 08:45:49;;;;;;;49.65;36.05;;;;;;;-6.84;100.00;103351.38;5122746;27;20047;-84
2024/01/11 08:48:15;;;;;;;45.13;33.33;;;;;;;-6.75;100.00;103333.81;5112370;28;20040;-84
2024/01/11 08:50:41;;;;;;;33.88;12.32;;;;;;;-6.69;100.00;103337.47;5118287;28;20118;-83
2024/01/11 08:53:06;;;;;;;30.13;11.50;;;;;;;-6.64;100.00;103338.50;5112761;28;20107;-84
2024/01/11 08:55:32;;;;;;;21.48;9.90;;;;;;;-6.57;100.00;103341.28;5106083;28;20027;-84
2024/01/11 08:57:57;;;;;;;25.13;10.48;;;;;;;-6.51;100.00;103344.06;5086929;28;20027;-83
2024/01/11 09:00:23;;;;;;;25.95;10.70;;;;;;;-6.44;100.00;103341.78;5111177;28;20131;-84
2024/01/11 09:02:49;;;;;;;24.85;10.75;;;;;;;-6.35;100.00;103366.88;5126508;27;20463;-83
2024/01/11 09:05:15;;;;;;;26.98;11.65;;;;;;;-6.24;100.00;103370.69;5123506;27;20118;-84
2024/01/11 09:07:40;;;;;;;25.13;10.00;;;;;;;-6.14;100.00;103379.56;5107864;28;20034;-84
2024/01/11 09:10:08;;;;;;;30.95;11.07;;;;;;;-6.07;100.00;103371.25;5114626;27;20077;-84
2024/01/11 09:12:34;;;;;;;31.90;11.70;;;;;;;-6.00;100.00;103375.81;5119711;28;20106;-84
2024/01/11 09:14:59;;;;;;;30.52;10.88;;;;;;;-5.96;100.00;103380.22;5107549;28;20102;-84
2024/01/11 09:17:24;;;;;;;29.02;10.65;;;;;;;-5.87;100.00;103371.94;5122648;27;20467;-85
2024/01/11 09:19:54;;;;;;;24.77;11.52;;;;;;;-5.82;100.00;103371.28;5126815;28;20482;-84
2024/01/11 09:22:19;;;;;;;25.15;10.70;;;;;;;-5.74;100.00;103376.66;5100075;28;20023;-84
2024/01/11 09:24:44;;;;;;;27.85;11.57;;;;;;;-5.65;100.00;103382.09;5101650;27;20071;-83
2024/01/11 09:27:10;;;;;;;27.40;11.88;;;;;;;-5.60;100.00;103377.09;5121571;27;20019;-84
2024/01/11 09:29:35;;;;;;;35.97;28.20;;;;;;;-5.55;100.00;103381.59;5120691;27;20042;-84
2024/01/11 09:32:01;;;;;;;32.80;11.23;;;;;;;-5.47;100.00;103375.00;5119528;27;20016;-84
2024/01/11 09:34:26;;;;;;;28.83;11.50;;;;;;;-5.39;100.00;103388.09;5102205;28;20104;-84
2024/01/11 09:36:52;;;;;;;23.98;9.93;;;;;;;-5.35;100.00;103382.22;5110992;28;20024;-84
2024/01/11 09:39:18;;;;;;;40.40;29.35;;;;;;;-5.28;100.00;103391.84;5122055;27;20019;-82
2024/01/11 09:41:55;;;;;;;39.13;29.77;;;;;;;-5.18;100.00;103398.19;5090274;27;20494;-84
2024/01/11 09:44:20;;;;;;;25.67;12.18;;;;;;;-5.12;100.00;103406.94;5127376;27;20113;-84
2024/01/11 09:46:47;;;;;;;24.17;11.75;;;;;;;-5.07;100.00;103407.97;5130065;27;20101;-84
2024/01/11 09:49:13;;;;;;;26.73;10.88;;;;;;;-4.99;100.00;103407.31;5088023;27;20043;-84
2024/01/11 09:51:40;;;;;;;25.70;11.27;;;;;;;-4.93;100.00;103402.38;5116994;27;20511;-84
2024/01/11 09:54:07;;;;;;;25.38;11.18;;;;;;;-4.91;100.00;103406.72;5123187;27;20380;-84
2024/01/11 09:56:33;;;;;;;27.02;12.43;;;;;;;-4.84;100.00;103425.75;5114056;27;20114;-84
2024/01/11 09:59:01;;;;;;;26.38;10.93;;;;;;;-4.77;100.00;103414.88;5109056;28;20037;-83
2024/01/11 10:01:26;;;;;;;30.52;12.13;;;;;;;-4.72;100.00;103418.44;5124271;27;20032;-85
2024/01/11 10:03:52;;;;;;;37.20;28.70;;;;;;;-4.71;100.00;103422.75;5123064;27;20031;-85
2024/01/11 10:06:19;;;;;;;38.78;28.75;;;;;;;-4.59;99.89;103417.13;5121686;27;20019;-84
2024/01/11 10:08:44;;;;;;;37.55;29.33;;;;;;;-4.53;99.50;103418.16;5136162;27;20100;-83
2024/01/11 10:11:10;;;;;;;23.73;11.55;;;;;;;-4.47;99.56;103423.47;5115528;27;20047;-83
2024/01/11 10:13:35;;;;;;;30.52;12.30;;;;;;;-4.42;98.66;103419.34;5109312;28;20031;-84
2024/01/11 10:16:09;;;;;;;31.88;13.85;;;;;;;-4.35;98.25;103424.69;5115545;27;20029;-83
2024/01/11 10:18:35;;;;;;;33.15;11.25;;;;;;;-4.31;98.05;103419.69;5105859;27;20150;-84
2024/01/11 10:21:02;;;;;;;21.52;9.60;;;;;;;-4.25;98.08;103425.00;5124185;27;20022;-84
2024/01/11 10:23:28;;;;;;;24.45;11.00;;;;;;;-4.18;97.73;103432.03;5099256;27;20124;-83
2024/01/11 10:25:57;;;;;;;27.55;11.82;;;;;;;-4.12;97.38;103428.75;5121827;27;20375;-84
2024/01/11 10:28:25;;;;;;;35.42;27.42;;;;;;;-4.07;96.13;103427.19;5129928;27;20106;-84
2024/01/11 10:30:54;;;;;;;37.70;28.65;;;;;;;-3.99;95.27;103415.44;5127496;27;20669;-85
2024/01/11 10:33:21;;;;;;;25.95;12.02;;;;;;;-3.91;95.20;103431.94;5119778;27;20110;-84
2024/01/11 10:35:48;;;;;;;25.80;9.90;;;;;;;-3.85;95.03;103426.09;5115427;27;20716;-84
2024/01/11 10:38:14;;;;;;;28.40;12.65;;;;;;;-3.77;94.83;103419.44;5123555;27;20076;-84
2024/01/11 10:40:41;;;;;;;31.00;13.73;;;;;;;-3.69;94.41;103428.22;5113568;27;20019;-84
2024/01/11 10:43:11;;;;;;;29.63;12.32;;;;;;;-3.61;94.19;103431.88;5114753;27;20035;-84
2024/01/11 10:45:38;;;;;;;35.10;28.27;;;;;;;-3.55;92.71;103441.47;5126833;27;20093;-84
2024/01/11 10:48:12;;;;;;;24.05;12.57;;;;;;;-3.50;91.96;103438.19;5110390;28;20024;-84
2024/01/11 10:50:42;;;;;;;28.48;11.45;;;;;;;-3.44;92.14;103418.59;5111942;28;20467;-84
2024/01/11 10:53:32;;;;;;;35.33;28.08;;;;;;;-3.41;91.17;103434.97;5119213;27;20496;-84
2024/01/11 10:55:59;;;;;;;41.33;29.20;;;;;;;-3.37;90.52;103423.91;5120851;27;20030;-85
2024/01/11 10:58:26;;;;;;;31.73;13.25;;;;;;;-3.29;90.80;103424.97;5129809;27;20470;-84
2024/01/11 11:00:55;;;;;;;24.70;11.25;;;;;;;-3.24;90.71;103423.38;5127694;27;20115;-83
2024/01/11 11:03:22;;;;;;;31.50;11.65;;;;;;;-3.18;90.85;103423.56;5130180;27;20024;-84
2024/01/11 11:05:50;;;;;;;30.10;12.02;;;;;;;-3.11;89.47;103418.56;5127171;27;20517;-84